createdAt,value
2018-07-30T03:17:03.028Z,85.19
2018-07-30T03:18:02.985Z,87.60
2018-07-30T03:19:03.007Z,86.78
2018-07-30T03:20:03.002Z,86.05
2018-07-30T03:21:02.972Z,85.47
2018-07-30T03:22:02.983Z,84.99
2018-07-30T03:23:02.972Z,85.05
2018-07-30T03:24:02.969Z,85.38
2018-07-30T03:25:02.988Z,84.99
2018-07-30T03:26:02.964Z,82.72
2018-07-30T03:27:02.969Z,83.30
2018-07-30T03:28:02.964Z,83.36
2018-07-30T03:29:03.227Z,81.51
2018-07-30T03:30:02.978Z,83.64
2018-07-30T03:31:02.983Z,84.52
2018-07-30T03:32:02.985Z,86.21
2018-07-30T03:33:03.002Z,84.12
2018-07-30T03:34:02.984Z,82.92
2018-07-30T03:35:03.031Z,83.45
2018-07-30T03:36:03.008Z,83.59
2018-07-30T03:37:02.996Z,83.94
2018-07-30T03:38:03.039Z,83.84
2018-07-30T03:39:03.049Z,84.42
2018-07-30T03:40:03.006Z,84.95
2018-07-30T03:41:03.014Z,86.35
2018-07-30T03:42:03.014Z,86.78
2018-07-30T03:43:03.037Z,85.34
2018-07-30T03:44:03.037Z,85.24
2018-07-30T03:45:03.042Z,85.14
2018-07-30T03:46:03.037Z,84.70
2018-07-30T03:47:03.046Z,84.03
2018-07-30T03:48:03.071Z,83.36
2018-07-30T03:49:03.079Z,83.16
2018-07-30T03:50:03.066Z,84.70
2018-07-30T03:51:03.080Z,86.83
2018-07-30T03:52:03.074Z,86.78
2018-07-30T03:53:03.070Z,85.53
2018-07-30T03:54:03.060Z,83.45
2018-07-30T03:55:03.075Z,85.53
2018-07-30T03:56:03.112Z,85.53
2018-07-30T03:57:03.065Z,83.84
2018-07-30T03:58:03.160Z,82.97
2018-07-30T03:59:03.079Z,83.36
2018-07-30T04:00:03.187Z,84.47
2018-07-30T04:01:03.104Z,85.34
2018-07-30T04:02:03.139Z,86.07
2018-07-30T04:03:03.105Z,84.32
2018-07-30T04:04:03.120Z,85.58
2018-07-30T04:05:03.098Z,85.58
2018-07-30T04:06:03.134Z,87.03
2018-07-30T04:07:03.172Z,86.55
2018-07-30T04:08:03.106Z,84.66
2018-07-30T04:09:03.126Z,82.87
2018-07-30T04:10:03.122Z,82.68
2018-07-30T04:11:03.120Z,82.39
2018-07-30T04:12:03.124Z,82.20
2018-07-30T04:13:03.158Z,83.51
2018-07-30T04:14:03.145Z,82.49
2018-07-30T04:15:03.141Z,81.81
2018-07-30T04:16:03.212Z,82.68
2018-07-30T04:17:03.134Z,82.59
2018-07-30T04:18:03.155Z,79.29
2018-07-30T04:19:03.144Z,80.60
2018-07-30T04:20:03.149Z,79.68
2018-07-30T04:21:03.210Z,81.76
2018-07-30T04:22:03.225Z,82.59
2018-07-30T04:23:03.167Z,81.52
2018-07-30T04:24:03.197Z,81.47
2018-07-30T04:25:03.220Z,81.37
2018-07-30T04:26:03.183Z,81.76
2018-07-30T04:27:03.180Z,83.16
2018-07-30T04:28:03.184Z,83.07
2018-07-30T04:29:03.198Z,82.59
2018-07-30T04:30:03.200Z,82.53
2018-07-30T04:31:03.207Z,83.45
2018-07-30T04:32:03.194Z,82.43
2018-07-30T04:33:03.203Z,81.57
2018-07-30T04:34:03.208Z,81.85
2018-07-30T04:35:03.219Z,80.16
2018-07-30T04:36:03.244Z,80.99
2018-07-30T04:37:03.244Z,80.89
2018-07-30T04:38:03.232Z,81.76
2018-07-30T04:39:03.268Z,79.29
2018-07-30T04:40:03.275Z,78.91
2018-07-30T04:41:03.250Z,78.56
2018-07-30T04:42:03.261Z,76.86
2018-07-30T04:43:03.242Z,76.57
2018-07-30T04:44:03.252Z,76.37
2018-07-30T04:45:03.276Z,75.79
2018-07-30T04:46:03.285Z,75.51
2018-07-30T04:47:03.293Z,74.54
2018-07-30T04:48:03.273Z,74.54
2018-07-30T04:49:03.293Z,74.38
2018-07-30T04:50:03.293Z,72.49
2018-07-30T04:51:03.282Z,71.66
2018-07-30T04:52:03.314Z,70.98
2018-07-30T04:53:03.307Z,70.78
2018-07-30T04:54:03.308Z,70.62
2018-07-30T04:55:03.338Z,69.17
2018-07-30T04:56:03.324Z,68.73
2018-07-30T04:57:03.380Z,67.56
2018-07-30T04:58:03.325Z,67.30
2018-07-30T04:59:03.336Z,66.27
2018-07-30T05:00:03.345Z,66.05
2018-07-30T05:01:03.349Z,65.30
2018-07-30T05:02:03.354Z,66.08
2018-07-30T05:03:03.360Z,65.72
2018-07-30T05:04:03.411Z,66.02
2018-07-30T05:05:03.378Z,65.69
2018-07-30T05:06:03.379Z,65.92
2018-07-30T05:07:03.424Z,66.02
2018-07-30T05:08:03.402Z,66.17
2018-07-30T05:09:03.392Z,66.17
2018-07-30T05:10:03.406Z,66.82
2018-07-30T05:11:03.422Z,67.40
2018-07-30T05:12:03.414Z,66.95
2018-07-30T05:13:03.871Z,66.08
2018-07-30T05:14:12.753Z,65.89
2018-07-30T05:16:04.583Z,65.89
2018-07-30T05:16:56.844Z,65.30
2018-07-30T05:17:56.854Z,64.43
2018-07-30T05:18:56.869Z,64.53
2018-07-30T05:19:57.130Z,64.62
2018-07-30T05:20:56.921Z,64.53
2018-07-30T05:21:56.872Z,64.56
2018-07-30T05:22:56.931Z,64.17
2018-07-30T05:23:56.913Z,64.56
2018-07-30T05:24:56.919Z,64.37
2018-07-30T05:25:56.944Z,64.11
2018-07-30T05:26:59.947Z,63.85
2018-07-30T05:27:56.948Z,61.91
2018-07-30T05:28:56.948Z,61.81
2018-07-30T05:29:56.981Z,61.42
2018-07-30T05:30:57.588Z,61.52
2018-07-30T05:31:56.988Z,60.74
2018-07-30T05:32:57.058Z,61.81
2018-07-30T05:33:57.048Z,60.74
2018-07-30T05:34:57.152Z,60.00
2018-07-30T05:35:57.025Z,59.77
2018-07-30T05:36:56.988Z,60.25
2018-07-30T05:37:57.038Z,60.45
2018-07-30T05:38:56.996Z,60.16
2018-07-30T05:39:57.007Z,60.55
2018-07-30T05:40:57.044Z,59.97
2018-07-30T05:41:57.064Z,60.19
2018-07-30T05:42:57.032Z,59.61
2018-07-30T05:43:57.042Z,59.12
2018-07-30T05:44:57.043Z,59.22
2018-07-30T05:45:57.076Z,59.03
2018-07-30T05:46:57.094Z,58.15
2018-07-30T05:47:57.076Z,57.40
2018-07-30T05:48:57.079Z,56.43
2018-07-30T05:49:57.123Z,57.40
2018-07-30T05:50:57.093Z,57.50
2018-07-30T05:51:57.102Z,57.31
2018-07-30T05:52:57.137Z,57.57
2018-07-30T05:53:57.132Z,58.47
2018-07-30T05:54:57.145Z,57.98
2018-07-30T05:55:57.161Z,57.50
2018-07-30T05:56:57.172Z,57.76
2018-07-30T05:57:57.191Z,58.37
2018-07-30T05:58:57.185Z,58.15
2018-07-30T05:59:57.196Z,58.25
2018-07-30T06:00:57.187Z,59.03
2018-07-30T06:01:57.218Z,59.22
2018-07-30T06:02:57.264Z,59.22
2018-07-30T06:03:57.205Z,58.93
2018-07-30T06:04:57.224Z,59.03
2018-07-30T06:05:57.255Z,59.70
2018-07-30T06:06:57.229Z,59.51
2018-07-30T06:07:57.295Z,59.12
2018-07-30T06:08:57.259Z,59.12
2018-07-30T06:09:57.318Z,58.44
2018-07-30T06:10:57.332Z,57.79
2018-07-30T06:11:57.280Z,57.40
2018-07-30T06:12:57.338Z,57.11
2018-07-30T06:13:57.362Z,57.76
2018-07-30T06:14:57.333Z,58.15
2018-07-30T06:15:57.324Z,58.05
2018-07-30T06:16:57.326Z,58.25
2018-07-30T06:17:57.382Z,58.54
2018-07-30T06:18:57.350Z,58.05
2018-07-30T06:19:57.400Z,57.86
2018-07-30T06:20:57.430Z,57.64
2018-07-30T06:21:57.407Z,57.93
2018-07-30T06:22:57.405Z,58.22
2018-07-30T06:23:57.431Z,58.31
2018-07-30T06:24:57.457Z,58.41
2018-07-30T06:25:57.448Z,58.15
2018-07-30T06:26:57.457Z,58.34
2018-07-30T06:27:57.443Z,58.05
2018-07-30T06:28:57.445Z,57.47
2018-07-30T06:29:57.468Z,57.76
2018-07-30T06:30:57.497Z,57.86
2018-07-30T06:31:57.516Z,57.64
2018-07-30T06:32:57.485Z,58.12
2018-07-30T06:33:57.486Z,58.22
2018-07-30T06:34:57.530Z,58.31
2018-07-30T06:35:57.526Z,58.51
2018-07-30T06:36:57.495Z,58.51
2018-07-30T06:37:57.526Z,59.00
2018-07-30T06:38:57.520Z,59.28
2018-07-30T06:39:57.537Z,59.19
2018-07-30T06:40:57.541Z,58.97
2018-07-30T06:41:57.560Z,59.36
2018-07-30T06:42:57.549Z,59.74
2018-07-30T06:43:57.560Z,60.03
2018-07-30T06:44:57.562Z,60.61
2018-07-30T06:45:57.592Z,60.61
2018-07-30T06:46:57.580Z,60.13
2018-07-30T06:47:57.673Z,60.42
2018-07-30T06:48:57.648Z,60.32
2018-07-30T06:49:57.652Z,60.42
2018-07-30T06:50:57.660Z,60.61
2018-07-30T06:51:57.618Z,60.42
2018-07-30T06:52:57.667Z,60.71
2018-07-30T06:53:57.720Z,61.58
2018-07-30T06:54:57.642Z,60.91
2018-07-30T06:55:57.650Z,60.91
2018-07-30T06:56:57.743Z,61.75
2018-07-30T06:57:57.670Z,60.97
2018-07-30T06:58:57.659Z,61.07
2018-07-30T06:59:57.680Z,60.88
2018-07-30T07:00:57.820Z,61.07
2018-07-30T07:01:57.773Z,60.91
2018-07-30T07:02:57.717Z,61.19
2018-07-30T07:03:57.728Z,61.10
2018-07-30T07:04:57.756Z,61.78
2018-07-30T07:05:57.720Z,61.49
2018-07-30T07:06:57.714Z,61.07
2018-07-30T07:07:57.730Z,61.39
2018-07-30T07:08:57.729Z,61.39
2018-07-30T07:09:57.741Z,61.49
2018-07-30T07:10:57.781Z,61.78
2018-07-30T07:11:57.759Z,61.78
2018-07-30T07:12:57.769Z,62.23
2018-07-30T07:13:57.788Z,62.04
2018-07-30T07:14:57.840Z,62.16
2018-07-30T07:15:57.779Z,62.07
2018-07-30T07:16:57.831Z,61.98
2018-07-30T07:17:57.824Z,62.16
2018-07-30T07:18:57.800Z,61.98
2018-07-30T07:19:57.842Z,62.16
2018-07-30T07:20:57.812Z,62.07
2018-07-30T07:21:57.841Z,62.46
2018-07-30T07:22:57.848Z,62.62
2018-07-30T07:23:57.843Z,62.65
2018-07-30T07:24:57.872Z,62.75
2018-07-30T07:26:07.513Z,62.95
2018-07-30T07:27:51.319Z,62.75
2018-07-30T07:28:51.359Z,63.04
2018-07-30T07:29:51.318Z,62.36
2018-07-30T07:30:51.365Z,63.23
2018-07-30T07:31:51.332Z,63.13
2018-07-30T07:32:51.338Z,63.04
2018-07-30T07:33:51.310Z,62.95
2018-07-30T07:34:51.330Z,63.04
2018-07-30T07:35:51.344Z,63.23
2018-07-30T07:36:51.356Z,63.23
2018-07-30T07:37:51.321Z,63.62
2018-07-30T07:38:51.319Z,62.75
2018-07-30T07:39:51.350Z,64.20
2018-07-30T07:40:51.346Z,63.53
2018-07-30T07:41:51.383Z,62.95
2018-07-30T07:42:51.353Z,63.26
2018-07-30T07:43:51.380Z,62.59
2018-07-30T07:44:51.402Z,62.78
2018-07-30T07:45:51.386Z,62.49
2018-07-30T07:46:51.418Z,62.29
2018-07-30T07:47:51.449Z,62.39
2018-07-30T07:48:51.418Z,62.68
2018-07-30T07:49:51.405Z,62.39
2018-07-30T07:50:51.639Z,62.01
2018-07-30T07:51:51.437Z,62.49
2018-07-30T07:52:51.477Z,62.68
2018-07-30T07:53:51.429Z,62.19
2018-07-30T07:54:51.465Z,61.91
2018-07-30T07:55:51.469Z,61.52
2018-07-30T07:56:51.488Z,62.01
2018-07-30T07:57:51.491Z,62.01
2018-07-30T07:58:51.489Z,61.71
2018-07-30T07:59:51.505Z,61.81
2018-07-30T08:00:51.512Z,61.81
2018-07-30T08:01:51.517Z,61.71
2018-07-30T08:02:51.536Z,61.81
2018-07-30T08:03:51.549Z,62.19
2018-07-30T08:04:51.522Z,61.71
2018-07-30T08:05:53.358Z,61.42
2018-07-30T08:06:51.561Z,61.32
2018-07-30T08:07:51.564Z,61.71
2018-07-30T08:08:51.564Z,61.04
2018-07-30T08:09:51.666Z,61.81
2018-07-30T08:10:51.621Z,61.71
2018-07-30T08:11:51.555Z,61.81
2018-07-30T08:12:51.597Z,61.84
2018-07-30T08:13:51.564Z,61.65
2018-07-30T08:14:51.572Z,61.74
2018-07-30T08:15:51.611Z,61.65
2018-07-30T08:16:51.616Z,61.55
2018-07-30T08:17:51.657Z,61.65
2018-07-30T08:18:51.680Z,61.55
2018-07-30T08:19:51.636Z,61.16
2018-07-30T08:20:51.659Z,61.84
2018-07-30T08:21:51.669Z,61.48
2018-07-30T08:22:51.692Z,61.25
2018-07-30T08:23:51.666Z,61.94
2018-07-30T08:24:51.647Z,61.74
2018-07-30T08:25:51.711Z,61.16
2018-07-30T08:26:51.658Z,61.07
2018-07-30T08:27:51.679Z,60.97
2018-07-30T08:28:51.725Z,62.13
2018-07-30T08:29:51.685Z,61.07
2018-07-30T08:30:51.714Z,60.77
2018-07-30T08:31:51.749Z,60.87
2018-07-30T08:32:51.743Z,60.97
2018-07-30T08:33:51.761Z,60.87
2018-07-30T08:34:51.758Z,59.22
2018-07-30T08:35:58.361Z,59.41
2018-07-30T08:36:51.771Z,59.41
2018-07-30T08:37:51.742Z,59.05
2018-07-30T08:38:51.781Z,57.79
2018-07-30T08:39:51.821Z,57.60
2018-07-30T08:40:51.817Z,57.89
2018-07-30T08:41:51.839Z,57.79
2018-07-30T08:42:51.815Z,57.79
2018-07-30T08:43:51.815Z,57.31
2018-07-30T08:44:51.800Z,57.60
2018-07-30T08:45:51.822Z,57.89
2018-07-30T08:46:51.807Z,58.11
2018-07-30T08:47:51.908Z,58.67
2018-07-30T08:48:51.886Z,58.47
2018-07-30T08:49:51.848Z,59.15
2018-07-30T08:50:51.912Z,58.95
2018-07-30T08:51:51.873Z,59.05
2018-07-30T08:52:51.934Z,59.25
2018-07-30T08:53:51.865Z,59.08
2018-07-30T08:54:51.887Z,58.79
2018-07-30T08:55:51.900Z,59.28
2018-07-30T08:56:52.007Z,59.28
2018-07-30T08:57:51.921Z,57.43
2018-07-30T08:58:51.928Z,56.16
2018-07-30T08:59:51.914Z,55.39
2018-07-30T09:00:51.994Z,55.19
2018-07-30T09:01:51.916Z,54.42
2018-07-30T09:02:51.936Z,53.83
2018-07-30T09:03:51.978Z,54.61
2018-07-30T09:04:51.948Z,54.52
2018-07-30T09:05:51.995Z,55.49
2018-07-30T09:06:51.961Z,55.78
2018-07-30T09:07:51.996Z,55.39
2018-07-30T09:08:52.035Z,54.32
2018-07-30T09:09:52.069Z,53.83
2018-07-30T09:10:51.995Z,53.06
2018-07-30T09:11:52.002Z,52.76
2018-07-30T09:12:52.166Z,52.57
2018-07-30T09:13:52.090Z,52.57
2018-07-30T09:14:52.059Z,52.50
2018-07-30T09:15:52.088Z,52.11
2018-07-30T09:16:52.057Z,52.31
2018-07-30T09:17:52.066Z,52.53
2018-07-30T09:18:52.112Z,51.94
2018-07-30T09:19:52.076Z,52.72
2018-07-30T09:20:52.080Z,51.33
2018-07-30T09:21:52.074Z,51.72
2018-07-30T09:22:52.106Z,52.98
2018-07-30T09:23:52.150Z,53.06
2018-07-30T09:24:52.111Z,53.47
2018-07-30T09:25:52.143Z,53.18
2018-07-30T09:26:52.164Z,53.47
2018-07-30T09:27:52.127Z,54.38
2018-07-30T09:28:52.143Z,54.83
2018-07-30T09:29:52.168Z,51.48
2018-07-30T09:30:52.148Z,51.87
2018-07-30T09:31:52.157Z,53.50
2018-07-30T09:32:52.262Z,53.01
2018-07-30T09:33:52.459Z,52.94
2018-07-30T09:34:52.221Z,52.92
2018-07-30T09:35:52.200Z,53.69
2018-07-30T09:36:52.233Z,53.99
2018-07-30T09:37:52.201Z,54.28
2018-07-30T09:38:52.282Z,54.38
2018-07-30T09:39:52.227Z,52.94
2018-07-30T09:40:52.350Z,52.28
2018-07-30T09:41:52.300Z,51.99
2018-07-30T09:42:52.303Z,48.88
2018-07-30T09:43:52.276Z,48.56
2018-07-30T09:44:52.348Z,50.02
2018-07-30T09:45:52.334Z,49.63
2018-07-30T09:46:52.273Z,48.85
2018-07-30T09:47:52.319Z,49.63
2018-07-30T09:48:52.319Z,50.21
2018-07-30T09:49:52.680Z,52.16
2018-07-30T09:50:52.427Z,51.09
2018-07-30T09:51:52.375Z,51.58
2018-07-30T09:52:52.354Z,50.99
2018-07-30T09:53:52.383Z,48.97
2018-07-30T09:54:52.354Z,48.29
2018-07-30T09:55:52.354Z,51.02
2018-07-30T09:56:52.355Z,50.92
2018-07-30T09:58:01.378Z,50.14
2018-07-30T09:59:45.801Z,50.92
2018-07-30T10:00:45.784Z,50.92
2018-07-30T10:01:45.786Z,51.12
2018-07-30T10:02:45.862Z,50.92
2018-07-30T10:03:45.813Z,50.63
2018-07-30T10:04:45.817Z,51.67
2018-07-30T10:05:45.827Z,51.09
2018-07-30T10:06:45.832Z,51.67
2018-07-30T10:07:45.839Z,51.99
2018-07-30T10:08:45.847Z,50.63
2018-07-30T10:09:45.858Z,51.02
2018-07-30T10:10:45.865Z,51.77
2018-07-30T10:11:45.961Z,51.51
2018-07-30T10:12:45.885Z,51.80
2018-07-30T10:13:45.892Z,50.95
2018-07-30T10:14:45.893Z,51.24
2018-07-30T10:15:45.927Z,51.04
2018-07-30T10:16:45.916Z,50.56
2018-07-30T10:17:45.956Z,48.93
2018-07-30T10:18:45.972Z,48.63
2018-07-30T10:19:45.949Z,49.58
2018-07-30T10:20:45.953Z,49.58
2018-07-30T10:21:45.965Z,48.90
2018-07-30T10:22:45.968Z,48.71
2018-07-30T10:23:45.991Z,49.10
2018-07-30T10:24:45.987Z,48.10
2018-07-30T10:25:45.997Z,48.41
2018-07-30T10:26:46.013Z,48.78
2018-07-30T10:27:46.013Z,49.19
2018-07-30T10:28:46.031Z,48.61
2018-07-30T10:29:46.034Z,48.78
2018-07-30T10:30:46.155Z,48.78
2018-07-30T10:31:46.050Z,48.97
2018-07-30T10:32:46.074Z,49.46
2018-07-30T10:33:46.060Z,48.88
2018-07-30T10:34:46.080Z,48.97
2018-07-30T10:35:46.078Z,48.58
2018-07-30T10:36:46.089Z,48.00
2018-07-30T10:37:46.103Z,47.13
2018-07-30T10:38:46.112Z,48.32
2018-07-30T10:39:46.121Z,48.51
2018-07-30T10:40:46.127Z,48.44
2018-07-30T10:41:46.139Z,48.24
2018-07-30T10:42:46.154Z,48.63
2018-07-30T10:43:46.166Z,48.36
2018-07-30T10:44:46.162Z,47.97
2018-07-30T10:45:46.169Z,47.12
2018-07-30T10:46:46.181Z,47.22
2018-07-30T10:47:46.193Z,47.39
2018-07-30T10:48:46.192Z,48.24
2018-07-30T10:49:46.208Z,49.22
2018-07-30T10:50:46.210Z,48.24
2018-07-30T10:51:46.259Z,47.78
2018-07-30T10:52:46.241Z,46.88
2018-07-30T10:53:46.259Z,47.56
2018-07-30T10:54:46.247Z,48.34
2018-07-30T10:55:46.255Z,48.07
2018-07-30T10:56:46.272Z,48.07
2018-07-30T10:57:46.284Z,47.00
2018-07-30T10:58:46.284Z,47.00
2018-07-30T10:59:46.293Z,47.00
2018-07-30T11:00:46.299Z,46.80
2018-07-30T11:01:46.319Z,46.39
2018-07-30T11:02:46.323Z,44.56
2018-07-30T11:03:46.552Z,47.09
2018-07-30T11:04:46.339Z,47.58
2018-07-30T11:05:46.358Z,48.27
2018-07-30T11:06:46.356Z,46.24
2018-07-30T11:07:46.406Z,48.29
2018-07-30T11:08:46.380Z,47.12
2018-07-30T11:09:46.409Z,47.61
2018-07-30T11:10:46.393Z,45.05
2018-07-30T11:11:46.401Z,42.46
2018-07-30T11:12:46.415Z,41.28
2018-07-30T11:13:46.425Z,41.19
2018-07-30T11:14:46.472Z,42.75
2018-07-30T11:15:46.449Z,43.41
2018-07-30T11:16:46.451Z,43.99
2018-07-30T11:17:46.457Z,43.51
2018-07-30T11:18:46.474Z,43.73
2018-07-30T11:19:46.476Z,43.90
2018-07-30T11:20:46.485Z,43.24
2018-07-30T11:21:46.499Z,42.44
2018-07-30T11:22:46.506Z,43.73
2018-07-30T11:23:46.511Z,42.65
2018-07-30T11:24:46.527Z,41.42
2018-07-30T11:25:46.540Z,41.80
2018-07-30T11:26:46.543Z,42.19
2018-07-30T11:27:46.550Z,38.28
2018-07-30T11:28:46.562Z,38.96
2018-07-30T11:29:46.570Z,39.04
2018-07-30T11:30:46.579Z,39.61
2018-07-30T11:31:46.593Z,40.09
2018-07-30T11:32:46.598Z,38.92
2018-07-30T11:33:46.613Z,39.70
2018-07-30T11:34:46.610Z,39.90
2018-07-30T11:35:46.623Z,38.94
2018-07-30T11:36:46.641Z,39.23
2018-07-30T11:37:46.652Z,38.94
2018-07-30T11:38:46.663Z,38.28
2018-07-30T11:39:46.663Z,38.67
2018-07-30T11:40:46.674Z,39.36
2018-07-30T11:41:46.687Z,39.37
2018-07-30T11:42:46.727Z,39.84
2018-07-30T11:43:46.804Z,39.57
2018-07-30T11:44:46.712Z,40.33
2018-07-30T11:45:46.725Z,39.94
2018-07-30T11:46:46.736Z,37.93
2018-07-30T11:47:46.744Z,37.60
2018-07-30T11:48:46.815Z,37.89
2018-07-30T11:49:46.764Z,38.98
2018-07-30T11:50:46.773Z,36.75
2018-07-30T11:51:46.781Z,34.99
2018-07-30T11:52:46.795Z,35.58
2018-07-30T11:53:46.822Z,35.28
2018-07-30T11:54:46.837Z,35.87
2018-07-30T11:55:46.820Z,35.68
2018-07-30T11:56:46.831Z,34.41
2018-07-30T11:57:46.880Z,34.97
2018-07-30T11:58:46.847Z,36.18
2018-07-30T11:59:46.860Z,36.67
2018-07-30T12:00:46.871Z,36.28
2018-07-30T12:01:46.896Z,38.02
2018-07-30T12:02:46.892Z,40.09
2018-07-30T12:03:46.899Z,38.61
2018-07-30T12:04:46.913Z,36.36
2018-07-30T12:05:46.912Z,36.67
2018-07-30T12:06:46.929Z,36.65
2018-07-30T12:07:46.931Z,36.47
2018-07-30T12:08:46.981Z,35.60
2018-07-30T12:09:46.962Z,36.05
2018-07-30T12:10:46.961Z,35.87
2018-07-30T12:11:46.973Z,36.16
2018-07-30T12:12:47.013Z,36.93
2018-07-30T12:13:46.993Z,38.40
2018-07-30T12:14:46.996Z,38.28
2018-07-30T12:15:47.007Z,38.67
2018-07-30T12:16:47.025Z,39.67
2018-07-30T12:17:47.026Z,40.06
2018-07-30T12:18:47.049Z,41.13
2018-07-30T12:19:47.047Z,40.08
2018-07-30T12:20:47.095Z,39.61
2018-07-30T12:21:47.102Z,36.77
2018-07-30T12:22:47.079Z,36.08
2018-07-30T12:23:47.091Z,37.16
2018-07-30T12:24:47.099Z,37.35
2018-07-30T12:25:47.108Z,36.47
2018-07-30T12:26:47.118Z,36.96
2018-07-30T12:27:47.136Z,36.08
2018-07-30T12:28:47.142Z,36.20
2018-07-30T12:29:47.149Z,36.69
2018-07-30T12:30:47.153Z,35.50
2018-07-30T12:31:47.170Z,35.79
2018-07-30T12:32:47.177Z,36.67
2018-07-30T12:33:47.182Z,38.14
2018-07-30T12:34:47.193Z,38.65
2018-07-30T12:35:47.199Z,37.18
2018-07-30T12:36:47.218Z,35.61
2018-07-30T12:37:55.852Z,36.18
2018-07-30T12:39:40.666Z,36.55
2018-07-30T12:40:40.658Z,36.57
2018-07-30T12:41:40.702Z,37.55
2018-07-30T12:42:40.687Z,38.51
2018-07-30T12:43:40.693Z,38.12
2018-07-30T12:44:40.705Z,38.90
2018-07-30T12:45:40.712Z,39.08
2018-07-30T12:46:40.721Z,38.40
2018-07-30T12:47:40.728Z,38.20
2018-07-30T12:48:40.735Z,38.49
2018-07-30T12:49:40.744Z,37.24
2018-07-30T12:50:40.766Z,35.79
2018-07-30T12:51:40.771Z,37.08
2018-07-30T12:52:40.782Z,37.18
2018-07-30T12:53:40.794Z,35.44
2018-07-30T12:54:40.797Z,34.84
2018-07-30T12:55:40.812Z,35.03
2018-07-30T12:56:40.819Z,35.22
2018-07-30T12:57:40.824Z,35.04
2018-07-30T12:58:40.837Z,34.74
2018-07-30T12:59:40.851Z,35.04
2018-07-30T13:00:40.861Z,34.83
2018-07-30T13:01:40.860Z,34.93
2018-07-30T13:02:40.879Z,35.32
2018-07-30T13:03:40.886Z,36.87
2018-07-30T13:04:40.898Z,36.59
2018-07-30T13:05:40.911Z,36.59
2018-07-30T13:06:40.912Z,36.32
2018-07-30T13:07:40.929Z,35.32
2018-07-30T13:08:40.933Z,36.98
2018-07-30T13:09:40.955Z,36.02
2018-07-30T13:10:40.957Z,35.91
2018-07-30T13:11:40.968Z,36.69
2018-07-30T13:12:40.982Z,36.80
2018-07-30T13:13:41.022Z,37.00
2018-07-30T13:14:40.993Z,37.10
2018-07-30T13:15:41.007Z,36.02
2018-07-30T13:16:41.017Z,36.32
2018-07-30T13:17:41.024Z,37.59
2018-07-30T13:18:41.049Z,36.02
2018-07-30T13:19:41.051Z,35.24
2018-07-30T13:20:41.056Z,35.44
2018-07-30T13:21:41.072Z,35.83
2018-07-30T13:22:41.073Z,36.04
2018-07-30T13:23:41.085Z,34.75
2018-07-30T13:24:41.094Z,35.71
2018-07-30T13:25:41.107Z,35.81
2018-07-30T13:26:41.225Z,35.81
2018-07-30T13:27:41.139Z,36.96
2018-07-30T13:28:41.146Z,37.06
2018-07-30T13:29:41.153Z,36.96
2018-07-30T13:30:41.170Z,37.06
2018-07-30T13:31:41.172Z,36.98
2018-07-30T13:32:41.255Z,36.90
2018-07-30T13:33:41.185Z,35.93
2018-07-30T13:34:41.208Z,36.22
2018-07-30T13:35:41.217Z,35.94
2018-07-30T13:36:41.220Z,35.83
2018-07-30T13:37:41.233Z,36.90
2018-07-30T13:38:41.245Z,36.88
2018-07-30T13:39:41.248Z,35.16
2018-07-30T13:40:41.269Z,35.53
2018-07-30T13:41:41.269Z,35.06
2018-07-30T13:42:41.287Z,35.75
2018-07-30T13:43:41.291Z,34.77
2018-07-30T13:44:41.300Z,35.25
2018-07-30T13:45:41.312Z,35.06
2018-07-30T13:46:41.320Z,36.04
2018-07-30T13:47:41.333Z,37.02
2018-07-30T13:48:41.344Z,36.63
2018-07-30T13:49:41.348Z,36.33
2018-07-30T13:50:41.370Z,35.24
2018-07-30T13:51:41.368Z,35.91
2018-07-30T13:52:41.398Z,36.10
2018-07-30T13:53:41.392Z,35.94
2018-07-30T13:54:41.461Z,36.14
2018-07-30T13:55:41.413Z,34.86
2018-07-30T13:56:41.424Z,35.94
2018-07-30T13:57:41.435Z,35.16
2018-07-30T13:58:41.450Z,35.16
2018-07-30T13:59:41.455Z,36.63
2018-07-30T14:00:41.491Z,36.24
2018-07-30T14:01:41.480Z,35.55
2018-07-30T14:02:41.499Z,36.06
2018-07-30T14:03:41.513Z,36.25
2018-07-30T14:04:41.500Z,35.06
2018-07-30T14:05:41.548Z,35.14
2018-07-30T14:06:41.558Z,35.44
2018-07-30T14:07:41.544Z,35.93
2018-07-30T14:08:41.680Z,35.75
2018-07-30T14:09:41.559Z,35.16
2018-07-30T14:10:41.571Z,35.06
2018-07-30T14:11:41.592Z,33.89
2018-07-30T14:12:41.613Z,34.38
2018-07-30T14:13:41.602Z,34.84
2018-07-30T14:14:41.615Z,34.83
2018-07-30T14:15:41.617Z,35.22
2018-07-30T14:16:41.635Z,35.71
2018-07-30T14:17:41.647Z,35.93
2018-07-30T14:18:41.671Z,36.24
2018-07-30T14:19:41.674Z,36.33
2018-07-30T14:20:41.678Z,36.82
2018-07-30T14:21:41.685Z,35.94
2018-07-30T14:22:41.696Z,36.14
2018-07-30T14:23:41.710Z,34.94
2018-07-30T14:24:41.738Z,35.04
2018-07-30T14:25:41.731Z,34.86
2018-07-30T14:26:41.753Z,35.53
2018-07-30T14:27:41.753Z,35.04
2018-07-30T14:28:41.759Z,35.34
2018-07-30T14:29:41.768Z,35.06
2018-07-30T14:30:41.783Z,35.25
2018-07-30T14:31:41.785Z,35.14
2018-07-30T14:32:41.818Z,35.44
2018-07-30T14:33:41.812Z,35.04
2018-07-30T14:34:41.822Z,34.94
2018-07-30T14:35:41.834Z,35.24
2018-07-30T14:36:41.878Z,35.16
2018-07-30T14:37:41.852Z,34.67
2018-07-30T14:38:41.873Z,35.45
2018-07-30T14:39:41.869Z,35.94
2018-07-30T14:40:41.883Z,36.04
2018-07-30T14:41:41.890Z,35.24
2018-07-30T14:42:41.907Z,35.73
2018-07-30T14:43:41.914Z,36.04
2018-07-30T14:44:41.943Z,34.77
2018-07-30T14:45:41.940Z,35.94
2018-07-30T14:46:41.953Z,35.37
2018-07-30T14:47:42.258Z,36.16
2018-07-30T14:48:41.968Z,35.08
2018-07-30T14:49:41.978Z,34.98
2018-07-30T14:50:41.993Z,35.35
2018-07-30T14:51:42.063Z,34.96
2018-07-30T14:52:42.014Z,35.83
2018-07-30T14:53:42.026Z,35.35
2018-07-30T14:54:42.035Z,34.67
2018-07-30T14:55:42.042Z,34.47
2018-07-30T14:56:42.053Z,34.94
2018-07-30T14:57:42.071Z,35.16
2018-07-30T14:58:42.073Z,34.96
2018-07-30T14:59:42.158Z,35.27
2018-07-30T15:00:42.096Z,35.86
2018-07-30T15:01:42.105Z,35.96
2018-07-30T15:02:42.117Z,34.78
2018-07-30T15:03:42.129Z,35.27
2018-07-30T15:04:42.145Z,35.37
2018-07-30T15:05:42.150Z,34.78
2018-07-30T15:06:42.166Z,34.88
2018-07-30T15:07:42.176Z,34.88
2018-07-30T15:08:42.193Z,35.08
2018-07-30T15:09:42.195Z,35.08
2018-07-30T15:10:42.199Z,35.47
2018-07-30T15:11:42.209Z,35.16
2018-07-30T15:12:42.224Z,35.16
2018-07-30T15:13:42.233Z,35.24
2018-07-30T15:14:42.247Z,35.14
2018-07-30T15:15:42.260Z,34.77
2018-07-30T15:16:42.267Z,34.57
2018-07-30T15:17:42.275Z,35.65
2018-07-30T15:18:42.291Z,35.17
2018-07-30T15:19:42.296Z,34.00
2018-07-30T15:20:42.306Z,34.88
2018-07-30T15:21:42.318Z,33.92
2018-07-30T15:22:42.333Z,34.69
2018-07-30T15:23:42.345Z,34.77
2018-07-30T15:24:42.366Z,33.80
2018-07-30T15:25:42.374Z,34.00
2018-07-30T15:26:42.376Z,34.00
2018-07-30T15:27:42.393Z,34.96
2018-07-30T15:28:42.394Z,34.47
2018-07-30T15:29:42.406Z,34.77
2018-07-30T15:30:42.420Z,33.90
2018-07-30T15:31:42.431Z,34.39
2018-07-30T15:32:42.436Z,34.88
2018-07-30T15:33:42.448Z,35.37
2018-07-30T15:34:42.463Z,34.88
2018-07-30T15:35:42.470Z,34.86
2018-07-30T15:36:42.480Z,34.77
2018-07-30T15:37:42.498Z,34.28
2018-07-30T15:38:42.509Z,33.89
2018-07-30T15:39:42.511Z,33.98
2018-07-30T15:40:42.590Z,34.77
2018-07-30T15:41:42.544Z,34.77
2018-07-30T15:42:42.542Z,34.77
2018-07-30T15:43:42.566Z,34.57
2018-07-30T15:44:42.565Z,35.06
2018-07-30T15:45:42.579Z,34.59
2018-07-30T15:46:42.644Z,34.59
2018-07-30T15:47:42.600Z,35.85
2018-07-30T15:48:42.741Z,35.85
2018-07-30T15:49:42.619Z,36.04
2018-07-30T15:50:42.637Z,35.06
2018-07-30T15:51:42.641Z,35.04
2018-07-30T15:52:42.656Z,35.93
2018-07-30T15:53:42.668Z,35.24
2018-07-30T15:54:42.711Z,35.73
2018-07-30T15:55:42.684Z,36.02
2018-07-30T15:56:42.699Z,36.02
2018-07-30T15:57:42.711Z,35.73
2018-07-30T15:58:42.723Z,36.02
2018-07-30T15:59:42.723Z,35.85
2018-07-30T16:00:42.744Z,35.94
2018-07-30T16:01:42.753Z,35.75
2018-07-30T16:02:42.760Z,35.06
2018-07-30T16:03:42.788Z,35.16
2018-07-30T16:04:42.778Z,35.85
2018-07-30T16:05:42.815Z,36.43
2018-07-30T16:06:42.805Z,36.61
2018-07-30T16:07:42.841Z,36.61
2018-07-30T16:08:42.826Z,36.41
2018-07-30T16:09:42.838Z,36.61
2018-07-30T16:10:42.860Z,37.00
2018-07-30T16:11:42.867Z,36.80
2018-07-30T16:12:42.861Z,37.00